Time;durP1;ratioP1;P1;durP2;ratioP2;P2;SDS_P1;SDS_P2;PMS_P1;PMS_P2;Temp;Humidity;BMP_temperature;BMP_pressure;BME280_temperature;BME280_humidity;BME280_pressure;Samples;Min_cycle;Max_cycle;Signal;HPM_P1;HPM_P2
2023/05/09 00:00:45;;;;;;;11.85;3.85;;;;;;;16.01;100.00;100912.34;7358120;19;20655;-64
2023/05/09 00:03:13;;;;;;;135.27;8.43;;;;;;;16.03;100.00;100913.00;7360249;19;20014;-64
2023/05/09 00:05:40;;;;;;;145.27;7.18;;;;;;;16.05;100.00;100908.31;7357766;19;20487;-63
2023/05/09 00:08:08;;;;;;;142.77;6.40;;;;;;;16.06;100.00;100907.31;7358275;19;20018;-64
2023/05/09 00:10:35;;;;;;;5.10;2.85;;;;;;;16.05;100.00;100900.34;7360639;19;20527;-64
2023/05/09 00:13:02;;;;;;;4.68;2.72;;;;;;;16.06;100.00;100899.34;7361710;19;20014;-64
2023/05/09 00:15:30;;;;;;;5.10;2.13;;;;;;;16.04;100.00;100890.78;7359084;19;20822;-63
2023/05/09 00:17:58;;;;;;;311.85;13.40;;;;;;;16.05;100.00;100886.28;7360657;19;20565;-64
2023/05/09 00:20:25;;;;;;;185.57;7.10;;;;;;;16.09;100.00;100876.94;7357627;19;20019;-64
2023/05/09 00:22:52;;;;;;;225.90;8.88;;;;;;;16.10;100.00;100878.59;7360798;19;20042;-64
2023/05/09 00:25:19;;;;;;;250.95;9.82;;;;;;;16.10;100.00;100876.72;7361061;19;20551;-64
2023/05/09 00:27:46;;;;;;;3.35;0.60;;;;;;;16.10;100.00;100876.72;7358144;19;20037;-64
2023/05/09 00:30:13;;;;;;;3.58;0.52;;;;;;;16.10;100.00;100878.59;7358353;19;20023;-66
2023/05/09 00:32:41;;;;;;;32.85;1.98;;;;;;;16.10;100.00;100867.97;7359042;19;20113;-65
2023/05/09 00:35:08;;;;;;;92.03;3.25;;;;;;;16.11;100.00;100874.88;7363929;19;20408;-65
2023/05/09 00:37:38;;;;;;;1.25;0.40;;;;;;;16.11;100.00;100873.06;7368542;19;20034;-64
2023/05/09 00:40:06;;;;;;;4.68;0.50;;;;;;;16.11;100.00;100866.94;7366501;19;20138;-64
2023/05/09 00:42:34;;;;;;;201.30;7.43;;;;;;;16.12;100.00;100863.28;7369070;19;20714;-65
2023/05/09 00:45:01;;;;;;;134.80;4.72;;;;;;;16.13;100.00;100859.59;7365260;19;20019;-65
2023/05/09 00:47:30;;;;;;;8.10;0.40;;;;;;;16.10;100.00;100866.09;7362499;19;20156;-64
2023/05/09 00:49:58;;;;;;;0.93;0.20;;;;;;;16.09;100.00;100856.50;7364044;19;20518;-63
2023/05/09 00:52:25;;;;;;;3.90;0.20;;;;;;;16.07;100.00;100852.38;7364705;19;20051;-64
2023/05/09 00:54:54;;;;;;;5.00;0.40;;;;;;;16.07;100.00;100847.91;7366445;19;20045;-68
2023/05/09 00:57:22;;;;;;;22.30;0.90;;;;;;;16.09;100.00;100848.56;7367558;19;20024;-65
2023/05/09 00:59:49;;;;;;;144.98;5.00;;;;;;;16.10;100.00;100839.56;7366648;19;21032;-65
2023/05/09 01:02:17;;;;;;;1.83;0.40;;;;;;;16.09;100.00;100839.75;7363423;19;20014;-65
2023/05/09 01:04:45;;;;;;;1.55;0.30;;;;;;;16.11;100.00;100837.72;7364044;19;20007;-64
2023/05/09 01:07:15;;;;;;;7.35;0.35;;;;;;;16.12;100.00;100839.38;7364847;19;20023;-64
2023/05/09 01:10:01;;;;;;;11.98;0.50;;;;;;;16.12;100.00;100836.72;7365541;19;20018;-64
2023/05/09 01:12:40;;;;;;;265.67;9.45;;;;;;;16.14;100.00;100824.91;7365820;19;20014;-64
2023/05/09 01:15:22;;;;;;;19.25;0.80;;;;;;;16.12;100.00;100826.09;7362975;19;20014;-64
2023/05/09 01:18:02;;;;;;;3.25;0.30;;;;;;;16.13;100.00;100825.09;7366946;19;20014;-65
2023/05/09 01:20:35;;;;;;;0.50;0.30;;;;;;;16.13;100.00;100819.78;7363503;19;20010;-63
2023/05/09 01:23:20;;;;;;;47.42;1.65;;;;;;;16.10;100.00;100812.22;7366857;19;20014;-64
2023/05/09 01:26:01;;;;;;;50.47;2.95;;;;;;;16.08;100.00;100815.03;7364156;19;20015;-65
2023/05/09 01:28:48;;;;;;;9.77;0.30;;;;;;;16.10;100.00;100815.66;7365166;19;20019;-65
2023/05/09 01:31:16;;;;;;;1.23;0.30;;;;;;;16.07;100.00;100810.75;7356958;19;20683;-65
2023/05/09 01:33:45;;;;;;;67.97;2.08;;;;;;;16.06;100.00;100810.91;7364551;19;20022;-66
2023/05/09 01:36:16;;;;;;;1.33;0.20;;;;;;;16.07;100.00;100816.06;7363899;19;20032;-65
2023/05/09 01:38:53;;;;;;;2.83;0.40;;;;;;;16.10;100.00;100813.00;7364764;19;20025;-63
2023/05/09 01:41:23;;;;;;;6.13;0.40;;;;;;;16.10;100.00;100799.72;7365737;19;20138;-64
2023/05/09 01:43:52;;;;;;;0.40;0.20;;;;;;;16.07;100.00;100807.25;7359743;19;20877;-64
2023/05/09 01:46:21;;;;;;;1.45;0.38;;;;;;;16.03;100.00;100806.81;7360937;19;20048;-65
2023/05/09 01:48:49;;;;;;;69.85;2.05;;;;;;;16.05;100.00;100806.66;7363144;19;20026;-64
2023/05/09 01:51:18;;;;;;;16.27;0.30;;;;;;;16.06;100.00;100805.63;7364167;19;20011;-64
2023/05/09 01:53:47;;;;;;;8.55;0.40;;;;;;;16.02;100.00;100807.84;7364649;19;20028;-65
2023/05/09 01:56:16;;;;;;;9.98;0.30;;;;;;;15.99;100.00;100797.59;7365413;19;20022;-65
2023/05/09 01:58:47;;;;;;;0.85;0.10;;;;;;;15.96;100.00;100792.66;7358703;19;20050;-64
2023/05/09 02:01:15;;;;;;;0.60;0.20;;;;;;;15.94;100.00;100792.03;7363539;19;20022;-64
2023/05/09 02:03:46;;;;;;;0.50;0.10;;;;;;;15.95;100.00;100787.56;7363652;19;20018;-64
2023/05/09 02:06:16;;;;;;;21.67;0.47;;;;;;;15.92;100.00;100786.09;7364087;19;20014;-64
2023/05/09 02:08:43;;;;;;;0.60;0.20;;;;;;;15.92;100.00;100783.44;7363211;19;20920;-65
2023/05/09 02:11:10;;;;;;;0.82;0.20;;;;;;;15.93;100.00;100781.59;7359113;19;20014;-64
2023/05/09 02:13:38;;;;;;;12.13;0.32;;;;;;;15.92;100.00;100786.09;7362966;19;20018;-64
2023/05/09 02:16:06;;;;;;;11.95;0.45;;;;;;;15.92;100.00;100778.13;7360836;19;20580;-71
2023/05/09 02:18:34;;;;;;;0.52;0.30;;;;;;;15.91;100.00;100783.59;7360936;19;20010;-63
2023/05/09 02:21:01;;;;;;;11.02;0.47;;;;;;;15.92;100.00;100778.13;7363257;19;20115;-63
2023/05/09 02:23:30;;;;;;;35.78;2.80;;;;;;;15.93;100.00;100785.09;7364336;19;20022;-64
2023/05/09 02:25:57;;;;;;;117.07;3.83;;;;;;;15.98;100.00;100784.50;7365248;19;20019;-64
2023/05/09 02:28:26;;;;;;;0.30;0.20;;;;;;;15.97;100.00;100781.03;7362707;19;20018;-64
2023/05/09 02:30:57;;;;;;;12.38;0.50;;;;;;;15.95;100.00;100779.59;7360158;19;20042;-63
2023/05/09 02:33:29;;;;;;;0.75;0.30;;;;;;;15.95;100.00;100777.72;7362470;19;20425;-64
2023/05/09 02:36:01;;;;;;;242.90;8.65;;;;;;;15.94;100.00;100776.13;7359833;19;21741;-64
2023/05/09 02:38:28;;;;;;;0.77;0.30;;;;;;;15.96;100.00;100783.88;7363128;19;20052;-65
2023/05/09 02:40:55;;;;;;;1.10;0.65;;;;;;;15.92;100.00;100779.94;7363680;19;20056;-64
2023/05/09 02:43:22;;;;;;;0.93;0.30;;;;;;;15.89;100.00;100783.81;7361783;19;20015;-64
2023/05/09 02:45:49;;;;;;;0.65;0.30;;;;;;;15.89;100.00;100783.81;7358658;19;20772;-66
2023/05/09 02:48:17;;;;;;;0.50;0.30;;;;;;;15.87;100.00;100775.22;7361294;19;20017;-64
2023/05/09 02:50:44;;;;;;;1.20;0.40;;;;;;;15.88;100.00;100776.03;7359541;19;20021;-64
2023/05/09 02:53:11;;;;;;;1.67;0.50;;;;;;;15.87;100.00;100782.34;7361462;19;20372;-63
2023/05/09 02:55:38;;;;;;;0.52;0.40;;;;;;;15.86;100.00;100773.56;7361535;19;20015;-64
2023/05/09 02:58:10;;;;;;;0.60;0.30;;;;;;;15.86;100.00;100775.41;7361161;19;20014;-64
2023/05/09 03:00:41;;;;;;;0.80;0.30;;;;;;;15.85;100.00;100771.91;7357530;19;20611;-64
2023/05/09 03:03:08;;;;;;;1.27;0.30;;;;;;;15.87;100.00;100771.75;7362133;19;20017;-65
2023/05/09 03:05:38;;;;;;;0.88;0.30;;;;;;;15.87;100.00;100777.88;7361342;19;20046;-63
2023/05/09 03:08:05;;;;;;;0.63;0.30;;;;;;;15.88;100.00;100784.00;7358949;19;20037;-63
2023/05/09 03:10:32;;;;;;;1.13;0.20;;;;;;;15.86;100.00;100780.69;7361170;19;20033;-64
2023/05/09 03:12:59;;;;;;;1.35;0.22;;;;;;;15.84;100.00;100778.25;7362016;19;20018;-64
2023/05/09 03:15:30;;;;;;;2.33;1.52;;;;;;;15.83;100.00;100785.38;7360623;19;20010;-64
2023/05/09 03:17:57;;;;;;;1.15;0.20;;;;;;;15.82;100.00;100781.09;7357914;19;20019;-64
2023/05/09 03:20:25;;;;;;;4.75;0.28;;;;;;;15.81;100.00;100790.06;7359456;19;20044;-65
2023/05/09 03:22:52;;;;;;;0.55;0.20;;;;;;;15.80;100.00;100798.19;7363388;19;20022;-67
2023/05/09 03:25:20;;;;;;;2.15;0.13;;;;;;;15.80;100.00;100798.19;7362338;19;20569;-65
2023/05/09 03:27:47;;;;;;;0.73;0.20;;;;;;;15.79;100.00;100799.22;7362860;19;20647;-64
2023/05/09 03:30:14;;;;;;;1.65;0.10;;;;;;;15.79;100.00;100797.41;7359682;19;20097;-63
2023/05/09 03:32:41;;;;;;;0.25;0.10;;;;;;;15.77;100.00;100791.44;7362178;19;20101;-64
2023/05/09 03:35:08;;;;;;;0.30;0.10;;;;;;;15.77;100.00;100787.97;7359558;19;20006;-64
2023/05/09 03:37:38;;;;;;;3.47;0.13;;;;;;;15.75;100.00;100782.84;7361496;19;20014;-64
2023/05/09 03:40:06;;;;;;;0.25;0.10;;;;;;;15.75;100.00;100795.28;7359559;19;20018;-64
2023/05/09 03:42:33;;;;;;;1.70;0.20;;;;;;;15.75;100.00;100795.28;7362709;19;20029;-65
2023/05/09 03:45:01;;;;;;;0.63;0.13;;;;;;;15.74;100.00;100780.41;7358032;19;20018;-64
2023/05/09 03:47:30;;;;;;;0.73;0.20;;;;;;;15.70;100.00;100782.56;7360600;19;21483;-64
2023/05/09 03:49:57;;;;;;;0.30;0.10;;;;;;;15.66;100.00;100781.31;7356706;19;20010;-64
2023/05/09 03:52:24;;;;;;;23.25;0.47;;;;;;;15.65;100.00;100774.34;7362666;19;20029;-64
2023/05/09 03:54:51;;;;;;;0.10;0.10;;;;;;;15.66;100.00;100780.50;7360809;19;20014;-64
2023/05/09 03:57:18;;;;;;;0.93;0.20;;;;;;;15.65;100.00;100777.00;7359518;19;21749;-65
2023/05/09 03:59:45;;;;;;;110.22;3.17;;;;;;;15.66;100.00;100770.69;7358724;19;20137;-64
2023/05/09 04:02:12;;;;;;;0.25;0.10;;;;;;;15.65;100.00;100769.06;7358163;19;20018;-64
2023/05/09 04:04:39;;;;;;;0.32;0.10;;;;;;;15.62;100.00;100768.63;7359163;19;20029;-63
2023/05/09 04:07:07;;;;;;;0.30;0.20;;;;;;;15.61;100.00;100765.13;7360647;19;20062;-66
2023/05/09 04:09:36;;;;;;;0.77;0.20;;;;;;;15.60;100.00;100762.66;7357250;19;20014;-65
2023/05/09 04:12:05;;;;;;;2.10;0.20;;;;;;;15.58;100.00;100762.03;7360651;19;20045;-65
2023/05/09 04:14:32;;;;;;;19.88;0.60;;;;;;;15.57;100.00;100755.09;7359203;19;20047;-64
2023/05/09 04:16:59;;;;;;;0.73;0.30;;;;;;;15.56;100.00;100759.56;7359527;19;20363;-64
2023/05/09 04:19:29;;;;;;;1.38;0.30;;;;;;;15.56;100.00;100756.09;7358141;19;20037;-63
2023/05/09 04:21:57;;;;;;;0.75;0.30;;;;;;;15.54;100.00;100758.13;7357644;19;20018;-64
2023/05/09 04:24:24;;;;;;;0.95;0.30;;;;;;;15.52;100.00;100755.66;7359547;19;20042;-64
2023/05/09 04:26:51;;;;;;;1.02;0.30;;;;;;;15.51;100.00;100750.50;7358571;19;20532;-66
2023/05/09 04:29:18;;;;;;;1.13;0.32;;;;;;;15.52;100.00;100747.69;7356223;19;20020;-64
2023/05/09 04:31:44;;;;;;;1.90;0.40;;;;;;;15.50;100.00;100752.31;7357442;19;20019;-64
2023/05/09 04:34:15;;;;;;;48.10;1.52;;;;;;;15.51;100.00;100753.16;7359650;19;20014;-63
2023/05/09 04:36:42;;;;;;;1.38;0.40;;;;;;;15.51;100.00;100764.63;7357831;19;20011;-64
2023/05/09 04:39:11;;;;;;;2.08;0.55;;;;;;;15.54;100.00;100763.44;7360566;19;20115;-66
2023/05/09 04:41:38;;;;;;;13.07;1.55;;;;;;;15.55;100.00;100752.63;7361926;19;20042;-64
2023/05/09 04:44:06;;;;;;;1.73;0.60;;;;;;;15.55;100.00;100752.63;7360295;19;20045;-65
2023/05/09 04:46:33;;;;;;;1.38;0.50;;;;;;;15.57;100.00;100755.09;7355832;19;20041;-64
2023/05/09 04:49:00;;;;;;;2.00;0.60;;;;;;;15.59;100.00;100751.25;7354395;19;20022;-64
2023/05/09 04:51:29;;;;;;;13.18;1.48;;;;;;;15.59;100.00;100745.94;7359404;19;20422;-66
2023/05/09 04:53:57;;;;;;;22.00;1.30;;;;;;;15.60;100.00;100744.09;7359924;19;20300;-65
2023/05/09 04:56:24;;;;;;;2.28;0.88;;;;;;;15.58;100.00;100746.97;7359824;19;20010;-69
2023/05/09 04:58:51;;;;;;;2.03;0.90;;;;;;;15.59;100.00;100745.13;7355901;19;20119;-64
2023/05/09 05:01:18;;;;;;;2.03;0.90;;;;;;;15.58;100.00;100741.66;7357372;19;20022;-65
2023/05/09 05:03:45;;;;;;;4.63;1.20;;;;;;;15.57;100.00;100745.31;7358748;19;20435;-65
2023/05/09 05:06:14;;;;;;;7.28;1.40;;;;;;;15.56;100.00;100748.97;7355821;19;20014;-65
2023/05/09 05:08:42;;;;;;;3.53;1.60;;;;;;;15.58;100.00;100743.47;7358083;19;20018;-64
2023/05/09 05:11:08;;;;;;;4.82;1.65;;;;;;;15.59;100.00;100740.66;7357979;19;20010;-64
2023/05/09 05:13:37;;;;;;;3.55;1.88;;;;;;;15.61;100.00;100740.44;7359956;19;20026;-65
2023/05/09 05:16:04;;;;;;;3.95;2.00;;;;;;;15.59;100.00;100732.69;7359883;19;21113;-66
2023/05/09 05:18:31;;;;;;;6.70;2.42;;;;;;;15.60;100.00;100734.31;7361536;19;20375;-66
2023/05/09 05:20:58;;;;;;;5.53;2.47;;;;;;;15.62;100.00;100726.16;7363464;19;20010;-65
2023/05/09 05:23:28;;;;;;;23.55;3.70;;;;;;;15.63;100.00;100731.31;7368379;19;20030;-65
2023/05/09 05:25:56;;;;;;;22.85;3.83;;;;;;;15.62;100.00;100727.00;7362421;19;20739;-65
2023/05/09 05:28:23;;;;;;;7.00;3.28;;;;;;;15.61;100.00;100720.03;7363607;19;20043;-65
2023/05/09 05:30:50;;;;;;;5.63;3.05;;;;;;;15.61;100.00;100728.00;7361115;19;20860;-65
2023/05/09 05:33:17;;;;;;;7.20;3.05;;;;;;;15.62;100.00;100726.16;7364253;19;20446;-65
2023/05/09 05:35:44;;;;;;;7.90;3.05;;;;;;;15.63;100.00;100727.81;7359860;19;20046;-65
2023/05/09 05:38:12;;;;;;;7.18;3.67;;;;;;;15.66;100.00;100727.44;7366183;19;20058;-65
2023/05/09 05:40:39;;;;;;;6.35;3.10;;;;;;;15.67;100.00;100729.09;7364613;19;20020;-64
2023/05/09 05:43:06;;;;;;;7.22;3.50;;;;;;;15.66;100.00;100722.13;7363484;19;20019;-65
2023/05/09 05:45:36;;;;;;;6.38;4.00;;;;;;;15.65;100.00;100717.81;7361997;19;20493;-64
2023/05/09 05:48:04;;;;;;;7.22;3.72;;;;;;;15.64;100.00;100717.03;7366536;19;20913;-65
2023/05/09 05:50:31;;;;;;;7.47;3.92;;;;;;;15.63;100.00;100718.03;7364642;19;20500;-64
2023/05/09 05:52:58;;;;;;;10.40;3.80;;;;;;;15.64;100.00;100713.56;7366852;19;20029;-65
2023/05/09 05:55:28;;;;;;;8.20;4.45;;;;;;;15.65;100.00;100712.53;7361169;19;20026;-65
2023/05/09 05:57:57;;;;;;;21.25;4.68;;;;;;;15.68;100.00;100706.84;7365292;19;20018;-65
2023/05/09 06:00:24;;;;;;;16.55;5.00;;;;;;;15.72;100.00;100710.78;7361774;19;20049;-64
2023/05/09 06:02:51;;;;;;;9.65;4.28;;;;;;;15.76;100.00;100706.72;7364394;19;21015;-65
2023/05/09 06:05:18;;;;;;;27.48;5.38;;;;;;;15.76;100.00;100702.25;7360360;19;20006;-64
2023/05/09 06:07:46;;;;;;;34.85;5.60;;;;;;;15.76;100.00;100706.72;7363458;19;20497;-64
2023/05/09 06:10:14;;;;;;;8.68;4.63;;;;;;;15.77;100.00;100714.50;7361567;19;20014;-64
2023/05/09 06:12:41;;;;;;;8.88;4.55;;;;;;;15.79;100.00;100728.41;7364897;19;20034;-65
2023/05/09 06:15:09;;;;;;;10.95;5.15;;;;;;;15.77;100.00;100719.81;7363565;19;20018;-64
2023/05/09 06:17:38;;;;;;;37.80;5.35;;;;;;;15.79;100.00;100724.94;7366453;19;20131;-65
2023/05/09 06:20:06;;;;;;;8.80;5.15;;;;;;;15.80;100.00;100726.56;7362217;19;20135;-64
2023/05/09 06:22:33;;;;;;;10.68;4.97;;;;;;;15.80;100.00;100730.03;7364393;19;20021;-65
2023/05/09 06:25:00;;;;;;;15.60;5.35;;;;;;;15.83;100.00;100729.66;7364674;19;20032;-66
2023/05/09 06:27:29;;;;;;;11.27;5.13;;;;;;;15.86;100.00;100728.44;7365538;19;20134;-65
2023/05/09 06:29:56;;;;;;;26.45;5.65;;;;;;;15.88;100.00;100722.97;7360888;19;20053;-64
2023/05/09 06:32:24;;;;;;;13.82;6.18;;;;;;;15.90;100.00;100723.59;7362041;19;20025;-65
2023/05/09 06:34:52;;;;;;;25.90;6.57;;;;;;;15.88;100.00;100725.63;7360684;19;20019;-64
2023/05/09 06:37:19;;;;;;;25.27;6.32;;;;;;;15.89;100.00;100727.28;7360823;19;20021;-65
2023/05/09 06:39:46;;;;;;;9.55;4.95;;;;;;;15.92;100.00;100725.03;7358480;19;20018;-65
2023/05/09 06:42:13;;;;;;;7.85;4.53;;;;;;;15.92;100.00;100725.03;7363235;19;20697;-64
2023/05/09 06:44:40;;;;;;;11.38;4.93;;;;;;;15.93;100.00;100726.69;7360683;19;20036;-64
2023/05/09 06:47:07;;;;;;;11.05;4.97;;;;;;;15.95;100.00;100726.50;7361204;19;20085;-65
2023/05/09 06:49:37;;;;;;;10.32;5.50;;;;;;;15.95;100.00;100719.34;7362309;19;20018;-64
2023/05/09 06:52:05;;;;;;;11.73;5.40;;;;;;;15.96;100.00;100723.66;7361292;19;20017;-65
2023/05/09 06:54:32;;;;;;;20.63;5.75;;;;;;;16.00;100.00;100722.25;7362986;19;20025;-64
2023/05/09 06:56:59;;;;;;;16.00;6.63;;;;;;;16.07;100.00;100719.66;7359530;19;20014;-65
2023/05/09 06:59:29;;;;;;;12.00;5.47;;;;;;;16.14;100.00;100717.91;7361848;19;20018;-66
2023/05/09 07:01:57;;;;;;;11.30;5.28;;;;;;;16.18;100.00;100716.50;7359504;19;20002;-65
2023/05/09 07:04:24;;;;;;;13.73;5.47;;;;;;;16.24;100.00;100713.06;7363081;19;20028;-65
2023/05/09 07:06:51;;;;;;;17.23;6.38;;;;;;;16.27;100.00;100705.53;7361372;19;20021;-65
2023/05/09 07:09:19;;;;;;;12.02;5.72;;;;;;;16.30;100.00;100708.84;7360070;19;20025;-65
2023/05/09 07:11:46;;;;;;;9.85;5.22;;;;;;;16.30;100.00;100706.19;7364648;19;20030;-66
2023/05/09 07:14:13;;;;;;;11.82;5.55;;;;;;;16.33;100.00;100703.13;7358189;19;20934;-64
2023/05/09 07:16:40;;;;;;;10.82;5.40;;;;;;;16.34;100.00;100697.63;7358352;19;20015;-64
2023/05/09 07:19:07;;;;;;;9.88;5.45;;;;;;;16.38;100.00;100698.88;7361236;19;20010;-67
2023/05/09 07:21:37;;;;;;;11.30;5.55;;;;;;;16.42;100.00;100694.81;7362167;19;20029;-66
2023/05/09 07:24:05;;;;;;;11.73;5.20;;;;;;;16.47;100.00;100696.88;7363029;19;20670;-64
2023/05/09 07:26:34;;;;;;;11.98;5.80;;;;;;;16.52;100.00;100699.78;7361721;19;20026;-65
2023/05/09 07:29:01;;;;;;;12.48;5.43;;;;;;;16.54;100.00;100706.56;7359682;19;20021;-65
2023/05/09 07:31:30;;;;;;;9.63;5.10;;;;;;;16.55;100.00;100702.88;7361413;19;20010;-65
2023/05/09 07:34:00;;;;;;;11.70;6.00;;;;;;;16.59;100.00;100706.00;7331874;19;20090;-64
2023/05/09 07:36:27;;;;;;;10.60;5.55;;;;;;;16.63;100.00;100716.03;7352951;19;20007;-65
2023/05/09 07:38:54;;;;;;;11.52;5.53;;;;;;;16.65;100.00;100710.53;7359653;19;20988;-64
2023/05/09 07:41:22;;;;;;;12.85;5.57;;;;;;;16.66;100.00;100705.00;7354925;19;20014;-65
2023/05/09 07:43:49;;;;;;;9.82;5.43;;;;;;;16.66;100.00;100709.50;7351890;19;20025;-65
2023/05/09 07:46:16;;;;;;;8.82;5.47;;;;;;;16.66;100.00;100707.66;7354068;19;20050;-65
2023/05/09 07:48:43;;;;;;;9.35;5.22;;;;;;;16.70;100.00;100705.47;7353611;19;20022;-65
2023/05/09 07:51:10;;;;;;;8.90;4.93;;;;;;;16.71;100.00;100717.69;7351851;19;20018;-65
2023/05/09 07:53:38;;;;;;;12.10;5.32;;;;;;;16.67;99.45;100708.50;7351971;19;20442;-65
2023/05/09 07:56:06;;;;;;;10.48;5.30;;;;;;;16.68;99.97;100710.13;7356975;19;20022;-65
2023/05/09 07:58:33;;;;;;;8.93;5.63;;;;;;;16.71;99.87;100703.63;7358802;19;20014;-65
2023/05/09 08:01:01;;;;;;;8.43;4.63;;;;;;;16.72;99.75;100697.28;7353094;19;20014;-65
2023/05/09 08:03:30;;;;;;;10.20;5.47;;;;;;;16.76;100.00;100709.16;7357172;19;20034;-65
2023/05/09 08:05:57;;;;;;;8.55;4.95;;;;;;;16.80;100.00;100705.09;7353166;19;20648;-66
2023/05/09 08:08:25;;;;;;;8.98;4.07;;;;;;;16.84;100.00;100703.69;7359521;19;20415;-66
2023/05/09 08:10:53;;;;;;;7.90;4.70;;;;;;;16.85;98.54;100700.84;7358782;19;21854;-65
2023/05/09 08:13:21;;;;;;;7.95;4.43;;;;;;;16.85;97.66;100702.66;7361619;19;20078;-63
2023/05/09 08:15:48;;;;;;;7.30;4.18;;;;;;;16.84;97.09;100701.03;7359139;19;20699;-68
2023/05/09 08:18:15;;;;;;;7.57;3.95;;;;;;;16.82;96.79;100703.88;7361948;19;20089;-65
2023/05/09 08:20:43;;;;;;;7.05;3.95;;;;;;;16.81;96.63;100698.78;7358118;19;20097;-64
2023/05/09 08:23:10;;;;;;;6.53;3.90;;;;;;;16.81;97.02;100701.44;7361886;19;20018;-65
2023/05/09 08:25:38;;;;;;;5.70;3.67;;;;;;;16.83;97.08;100705.53;7359657;19;20018;-65
2023/05/09 08:28:05;;;;;;;6.15;3.58;;;;;;;16.92;97.29;100712.31;7361868;19;20066;-65
2023/05/09 08:30:32;;;;;;;17.38;10.73;;;;;;;17.02;98.06;100718.09;7355330;19;20023;-65
2023/05/09 08:33:00;;;;;;;10.98;5.78;;;;;;;17.07;97.86;100714.81;7359554;19;20615;-64
2023/05/09 08:35:29;;;;;;;7.93;4.45;;;;;;;17.09;97.18;100713.63;7356852;19;20478;-64
2023/05/09 08:37:56;;;;;;;5.63;3.40;;;;;;;17.15;95.88;100704.03;7361168;19;20119;-64
2023/05/09 08:40:24;;;;;;;9.20;3.60;;;;;;;17.24;96.02;100710.00;7359045;19;20030;-65
2023/05/09 08:42:52;;;;;;;6.32;3.30;;;;;;;17.33;96.10;100701.63;7358870;19;20102;-64
2023/05/09 08:45:26;;;;;;;6.43;3.35;;;;;;;17.43;95.34;100712.72;7356797;19;20041;-64
2023/05/09 08:47:56;;;;;;;5.40;3.45;;;;;;;17.53;94.13;100705.16;7360547;19;20018;-65
2023/05/09 08:50:24;;;;;;;5.72;3.60;;;;;;;17.65;93.81;100709.94;7356828;19;20015;-64
2023/05/09 08:52:52;;;;;;;5.80;3.22;;;;;;;17.66;92.82;100706.25;7364010;19;20382;-64
2023/05/09 08:55:20;;;;;;;4.25;3.13;;;;;;;17.67;92.53;100714.06;7360815;19;20030;-65
2023/05/09 08:57:48;;;;;;;4.30;2.85;;;;;;;17.62;91.89;100713.84;7370449;19;20348;-65
2023/05/09 09:00:19;;;;;;;4.53;2.42;;;;;;;17.60;92.31;100709.72;7363619;19;20061;-64
2023/05/09 09:02:47;;;;;;;6.15;2.30;;;;;;;17.59;92.44;100711.56;7368686;19;20025;-65
2023/05/09 09:05:15;;;;;;;4.97;2.95;;;;;;;17.63;92.69;100723.44;7365353;19;20041;-64
2023/05/09 09:08:04;;;;;;;3.53;1.95;;;;;;;17.76;92.01;100720.00;7365467;19;20045;-65
2023/05/09 09:10:32;;;;;;;3.03;1.48;;;;;;;17.77;91.12;100711.00;7364939;19;20635;-65
2023/05/09 09:13:03;;;;;;;3.15;1.67;;;;;;;17.72;90.29;100710.78;7369965;19;20022;-65
2023/05/09 09:15:35;;;;;;;3.97;1.95;;;;;;;17.67;90.50;100713.22;7367851;19;20111;-63
2023/05/09 09:18:07;;;;;;;4.35;2.05;;;;;;;17.67;90.88;100711.41;7367384;19;20018;-64
2023/05/09 09:20:39;;;;;;;;;;;;;;;17.71;90.93;100707.31;7367634;19;20268;-64
2023/05/09 09:23:09;;;;;;;4.13;1.20;;;;;;;17.70;90.52;100705.66;7365036;19;20347;-64
2023/05/09 09:25:38;;;;;;;5.78;1.85;;;;;;;17.76;90.17;100699.53;7363327;19;20006;-64
2023/05/09 09:28:05;;;;;;;4.57;1.50;;;;;;;17.85;89.85;100705.47;7367426;19;20343;-63
2023/05/09 09:30:33;;;;;;;4.60;1.35;;;;;;;17.92;89.65;100703.66;7361706;19;20019;-64
2023/05/09 09:33:00;;;;;;;3.42;1.00;;;;;;;17.93;88.80;100698.09;7364639;19;20089;-65
2023/05/09 09:35:37;;;;;;;2.17;1.13;;;;;;;17.99;89.25;100698.31;7365283;19;20010;-64
2023/05/09 09:38:05;;;;;;;5.22;1.15;;;;;;;18.04;88.72;100687.84;7365834;19;20044;-65
2023/05/09 09:40:32;;;;;;;4.25;1.10;;;;;;;18.14;88.30;100693.59;7362703;19;20019;-68
2023/05/09 09:42:59;;;;;;;3.42;0.85;;;;;;;18.23;87.25;100687.88;7363347;19;20034;-64
2023/05/09 09:45:29;;;;;;;4.15;1.10;;;;;;;18.29;87.41;100683.53;7362873;19;20354;-65
2023/05/09 09:48:06;;;;;;;2.95;0.80;;;;;;;18.31;87.20;100679.66;7364285;19;20035;-64
2023/05/09 09:50:33;;;;;;;7.25;0.73;;;;;;;18.37;86.34;100678.00;7360179;19;20022;-64
2023/05/09 09:53:00;;;;;;;2.67;0.98;;;;;;;18.44;86.21;100670.81;7364443;19;20680;-66
2023/05/09 09:55:30;;;;;;;3.65;0.90;;;;;;;18.52;85.41;100673.28;7363618;19;20018;-65
2023/05/09 09:57:57;;;;;;;3.70;0.90;;;;;;;18.61;84.02;100672.03;7364251;19;20014;-64
2023/05/09 10:00:27;;;;;;;2.22;0.70;;;;;;;18.65;82.24;100667.09;7361993;19;20022;-65
2023/05/09 10:02:56;;;;;;;1.98;0.50;;;;;;;18.74;81.09;100663.22;7365821;19;20014;-65
2023/05/09 10:05:28;;;;;;;1.20;0.50;;;;;;;18.76;80.41;100663.78;7363774;19;20514;-64
2023/05/09 10:07:59;;;;;;;2.55;0.70;;;;;;;18.82;80.70;100662.97;7365157;19;21622;-65
2023/05/09 10:10:29;;;;;;;3.40;0.65;;;;;;;18.83;80.20;100667.28;7362368;19;20018;-64
2023/05/09 10:12:59;;;;;;;2.20;0.68;;;;;;;18.93;80.13;100672.97;7362741;19;20086;-67
2023/05/09 10:15:30;;;;;;;1.88;0.60;;;;;;;18.95;78.19;100670.06;7363230;19;20190;-64
2023/05/09 10:18:13;;;;;;;1.95;0.40;;;;;;;18.92;76.62;100666.00;7366036;19;20085;-64
2023/05/09 10:20:43;;;;;;;2.22;0.50;;;;;;;18.96;78.33;100664.53;7360612;19;20022;-65
2023/05/09 10:23:12;;;;;;;2.78;0.50;;;;;;;19.04;77.64;100663.50;7365387;19;20022;-64
2023/05/09 10:25:46;;;;;;;2.80;0.50;;;;;;;19.03;76.82;100656.53;7362806;19;20014;-64
2023/05/09 10:28:17;;;;;;;2.03;0.60;;;;;;;18.97;77.55;100652.84;7365231;19;20026;-66
2023/05/09 10:30:48;;;;;;;2.92;0.50;;;;;;;18.96;77.58;100647.72;7361310;19;20022;-64
2023/05/09 10:33:20;;;;;;;2.55;0.60;;;;;;;18.99;79.98;100647.31;7362225;19;20019;-64
2023/05/09 10:35:49;;;;;;;3.35;1.05;;;;;;;19.10;81.12;100639.44;7363054;19;20025;-64
2023/05/09 10:38:17;;;;;;;7.18;0.68;;;;;;;19.19;77.28;100632.84;7365354;19;20401;-64
2023/05/09 10:40:47;;;;;;;5.25;0.70;;;;;;;19.32;76.13;100633.78;7360823;19;20022;-64
2023/05/09 10:43:14;;;;;;;3.25;0.50;;;;;;;19.35;74.24;100628.03;7363853;19;20014;-65
2023/05/09 10:45:43;;;;;;;2.40;0.52;;;;;;;19.41;75.69;100632.50;7359636;19;20439;-65
2023/05/09 10:48:10;;;;;;;2.35;0.77;;;;;;;19.38;73.83;100632.94;7363795;19;20018;-65
2023/05/09 10:50:39;;;;;;;7.00;0.80;;;;;;;19.32;70.50;100634.59;7359589;19;20020;-65
2023/05/09 10:53:07;;;;;;;3.85;0.70;;;;;;;19.25;71.72;100633.03;7364210;19;20098;-64
2023/05/09 10:55:36;;;;;;;2.55;0.60;;;;;;;19.18;72.50;100625.03;7361669;19;20350;-67
2023/05/09 10:58:23;;;;;;;2.38;0.50;;;;;;;19.09;73.07;100624.50;7361566;19;20029;-67
2023/05/09 11:00:52;;;;;;;5.15;0.80;;;;;;;19.05;74.83;100630.44;7356305;19;20649;-65
2023/05/09 11:03:22;;;;;;;5.57;0.80;;;;;;;19.03;75.05;100621.84;7361971;19;20086;-68
2023/05/09 11:05:52;;;;;;;4.00;0.68;;;;;;;19.03;74.40;100625.34;7360492;19;20010;-65
2023/05/09 11:08:29;;;;;;;2.63;0.60;;;;;;;19.05;73.86;100617.09;7358884;19;20025;-66
2023/05/09 11:10:59;;;;;;;7.13;0.82;;;;;;;19.08;75.35;100617.50;7359541;19;20475;-65
2023/05/09 11:13:37;;;;;;;5.50;0.63;;;;;;;19.08;74.92;100614.84;7362193;19;20089;-65
2023/05/09 11:16:10;;;;;;;2.85;0.60;;;;;;;19.14;74.37;100616.66;7360101;19;20031;-65
2023/05/09 11:18:50;;;;;;;5.82;0.70;;;;;;;19.16;73.14;100622.59;7358819;19;20022;-64
2023/05/09 11:21:19;;;;;;;3.30;0.60;;;;;;;19.23;73.74;100620.72;7359043;19;20646;-65
2023/05/09 11:23:47;;;;;;;6.88;0.93;;;;;;;19.34;75.74;100610.38;7361038;19;20014;-64